Main page
METAR-TAF:

METAR-TAF

Airports :

Liepāja International Airport

Liepāja, Latvia

latitude: 56-31N, longitude: 021-05E, elevation: 5 m

Current weather observation

The report was made 36 minutes ago, at 01:20 UTC
Wind 7 kt from the North/Northeast
Temperature 2°C
Humidity 93%
Pressure 1032 hPa
Visibility 10 km or more

METAR: EVLA 190120Z AUTO 03007KT 9999 SCT035/// 02/01 Q1032

Time: 03:56 (01:56 UTC)

Forecast

The report was made 2 hours and 53 minutes ago, at 23:03 UTC
Forecast valid from 19 at 00 UTC to 19 at 24 UTC
Wind 7 kt from the East/Northeast
Visibility 10 km or more
Broken clouds at a height of 2000 ft
Temporary
from 19 at 00 UTC to 19 at 06 UTC
Broken clouds at a height of 1000 ft

TAF: EVLA 182303Z 1900/1924 06007KT 9999 BKN020 TEMPO 1900/1906 BKN010

Weather observations and forecasts of more than 4000 airports (METAR and TAF reports).

The available stations are represented by yellow and red dots on the map.

Hover mouse over dot to see the name of the station.

Then click to see weather observations and forecasts.

To change the map : click on the green buttons with a black cross to zoom in, on the green button with a dash to zoom out, or on the green arrows for adjacent maps.


METAR-TAF: